Time;durP1;ratioP1;P1;durP2;ratioP2;P2;SDS_P1;SDS_P2;PMS_P1;PMS_P2;Temp;Humidity;BMP_temperature;BMP_pressure;BME280_temperature;BME280_humidity;BME280_pressure;Samples;Min_cycle;Max_cycle;Signal;HPM_P1;HPM_P2
2019/06/29 00:02:40;;;;;;;6.2;3;;;;;;;19.03;62.0166;943.4111;;;;
2019/06/29 00:05:21;;;;;;;6.7;2.9;;;;;;;19.06;62.63867;943.4155;;;;
2019/06/29 00:07:43;;;;;;;6.2;2.8;;;;;;;19.09;62.09473;943.4118;;;;
2019/06/29 00:10:14;;;;;;;6.6;3.2;;;;;;;19.12;61.50488;943.4348;;;;
2019/06/29 00:12:58;;;;;;;4.9;2.9;;;;;;;18.92;62.59473;943.3075;;;;
2019/06/29 00:18:38;;;;;;;4.7;3;;;;;;;18.81;63.24219;943.3329;;;;
2019/06/29 00:21:10;;;;;;;6.2;2.8;;;;;;;18.72;62.71777;943.3528;;;;
2019/06/29 00:23:52;;;;;;;6.7;2.9;;;;;;;18.79;62.90234;943.3397;;;;
2019/06/29 00:26:33;;;;;;;7.4;3.6;;;;;;;18.58;64.25586;943.3;;;;
2019/06/29 00:29:29;;;;;;;6.9;3.5;;;;;;;18.27;65.2334;943.3497;;;;
2019/06/29 00:32:13;;;;;;;6.3;3.5;;;;;;;18.27;65.17578;943.3279;;;;
2019/06/29 00:35:02;;;;;;;4.3;3.1;;;;;;;18.24;65.32129;943.3275;;;;
2019/06/29 00:37:27;;;;;;;5.3;3;;;;;;;18.27;64.32715;943.3318;;;;
2019/06/29 00:40:00;;;;;;;6;3.1;;;;;;;18.28;65.07227;943.3995;;;;
2019/06/29 00:42:27;;;;;;;7;3.5;;;;;;;18.38;64.48242;943.3411;;;;
2019/06/29 00:45:08;;;;;;;6.9;3;;;;;;;18.26;65.42871;943.282;;;;
2019/06/29 00:47:57;;;;;;;5.8;3.3;;;;;;;18.26;65.46289;943.3337;;;;
2019/06/29 00:50:43;;;;;;;6.9;3.4;;;;;;;18.29;64.33008;943.351;;;;
2019/06/29 00:53:14;;;;;;;5.8;3;;;;;;;18.1;64.88281;943.3562;;;;
2019/06/29 00:55:45;;;;;;;5.7;3;;;;;;;18.09;64.92773;943.3233;;;;
2019/06/29 00:58:31;;;;;;;3.9;3;;;;;;;18.17;65.14746;943.3828;;;;
2019/06/29 01:01:15;;;;;;;3.9;2.8;;;;;;;18.27;63.88574;943.3318;;;;
2019/06/29 01:04:07;;;;;;;5.3;2.9;;;;;;;17.81;65.17578;943.3684;;;;
2019/06/29 01:06:28;;;;;;;5.1;3.1;;;;;;;17.7;65.79883;943.2857;;;;
2019/06/29 01:09:33;;;;;;;8.1;3.3;;;;;;;17.79;65.74316;943.3315;;;;
2019/06/29 01:12:23;;;;;;;5.4;3.3;;;;;;;17.92;65.16992;943.3256;;;;
2019/06/29 01:15:22;;;;;;;4.5;3.1;;;;;;;18.09;64.6377;943.3016;;;;
2019/06/29 01:17:55;;;;;;;6.3;3.1;;;;;;;17.98;64.94727;943.2968;;;;
2019/06/29 01:20:27;;;;;;;4.8;2.9;;;;;;;17.92;65.18164;943.2991;;;;
2019/06/29 01:22:54;;;;;;;5.1;3.1;;;;;;;17.88;65.40723;943.2914;;;;
2019/06/29 01:25:19;;;;;;;4.2;2.6;;;;;;;17.74;65.87402;943.2724;;;;
2019/06/29 01:27:54;;;;;;;5.9;2.9;;;;;;;17.92;65.69238;943.2991;;;;
2019/06/29 01:30:48;;;;;;;5.7;3.2;;;;;;;17.88;65.53418;943.223;;;;
2019/06/29 01:33:19;;;;;;;5.6;3.1;;;;;;;17.9;65.35156;943.2848;;;;
2019/06/29 01:36:15;;;;;;;6.2;3.1;;;;;;;17.88;65.39648;943.2181;;;;
2019/06/29 01:38:48;;;;;;;6.4;3;;;;;;;17.7;65.90332;943.1569;;;;
2019/06/29 01:41:33;;;;;;;7.6;3.4;;;;;;;17.53;66.3418;943.1588;;;;
2019/06/29 01:44:19;;;;;;;6.1;3.1;;;;;;;17.23;67.45605;943.1933;;;;
2019/06/29 01:46:38;;;;;;;10.5;3.3;;;;;;;17.25;67.36523;943.2084;;;;
2019/06/29 01:48:59;;;;;;;6.2;3.3;;;;;;;17.39;66.70313;943.1492;;;;
2019/06/29 01:51:31;;;;;;;5.4;3.3;;;;;;;17.18;67.62207;943.1378;;;;
2019/06/29 01:54:28;;;;;;;6.1;3.2;;;;;;;17.02;68.47949;943.0747;;;;
2019/06/29 01:56:49;;;;;;;5.7;3.2;;;;;;;16.99;68.58984;943.0095;;;;
2019/06/29 01:59:30;;;;;;;5.5;3.1;;;;;;;16.68;69.61719;942.9713;;;;
2019/06/29 02:02:13;;;;;;;4.2;3.1;;;;;;;16.9;68.86523;942.9724;;;;
2019/06/29 02:04:44;;;;;;;6;3;;;;;;;17.02;68.44434;942.9886;;;;
2019/06/29 02:07:38;;;;;;;5.5;3.2;;;;;;;16.97;68.52832;942.9815;;;;
2019/06/29 02:10:22;;;;;;;5.9;3.8;;;;;;;16.79;69.36914;942.9503;;;;
2019/06/29 02:12:54;;;;;;;6.3;3.4;;;;;;;16.86;69.00977;942.8906;;;;
2019/06/29 02:15:41;;;;;;;5.7;3.3;;;;;;;16.84;69.36621;942.91;;;;
2019/06/29 02:18:13;;;;;;;5.9;3.3;;;;;;;17.29;67.62598;942.9504;;;;
2019/06/29 02:20:57;;;;;;;5.1;3.4;;;;;;;17.32;67.80566;942.9084;;;;
2019/06/29 02:23:49;;;;;;;7.3;3.2;;;;;;;16.92;68.45215;942.8757;;;;
2019/06/29 02:26:37;;;;;;;6;3.3;;;;;;;16.84;68.75098;942.8506;;;;
2019/06/29 02:29:03;;;;;;;6.3;3.5;;;;;;;16.83;68.82031;942.9455;;;;
2019/06/29 02:31:43;;;;;;;4.9;3.2;;;;;;;16.53;69.84863;942.8412;;;;
2019/06/29 02:34:16;;;;;;;5.5;3;;;;;;;16.56;69.83105;942.9022;;;;
2019/06/29 02:36:41;;;;;;;3.7;2.9;;;;;;;16.9;68.61035;942.8823;;;;
2019/06/29 02:39:13;;;;;;;4.4;3;;;;;;;16.86;68.68555;942.9678;;;;
2019/06/29 02:41:57;;;;;;;6.1;3.2;;;;;;;16.6;69.60449;942.9067;;;;
2019/06/29 02:44:23;;;;;;;6;3.2;;;;;;;16.45;70.19434;942.8248;;;;
2019/06/29 02:47:05;;;;;;;5.7;3.6;;;;;;;16.91;68.83203;942.8469;;;;
2019/06/29 02:49:45;;;;;;;6.7;3.6;;;;;;;17.12;68.07617;942.8792;;;;
2019/06/29 02:52:27;;;;;;;9;3.4;;;;;;;16.72;69.11426;942.864;;;;
2019/06/29 02:55:01;;;;;;;5.4;3.5;;;;;;;16.62;69.6543;942.8056;;;;
2019/06/29 02:57:28;;;;;;;6;3.5;;;;;;;16.52;70.11328;942.7786;;;;
2019/06/29 02:59:55;;;;;;;6.8;3.4;;;;;;;16.54;70.29102;942.8315;;;;
2019/06/29 03:02:34;;;;;;;7.9;3.3;;;;;;;16.83;69.05176;942.8169;;;;
2019/06/29 03:05:02;;;;;;;7.2;3.6;;;;;;;17;69.05469;942.875;;;;
2019/06/29 03:07:38;;;;;;;5.3;3.4;;;;;;;17.08;68.08203;942.8112;;;;
2019/06/29 03:10:22;;;;;;;4.6;3.3;;;;;;;17.24;67.47949;942.823;;;;
2019/06/29 03:13:07;;;;;;;4.9;3.3;;;;;;;17.29;67.08203;942.8297;;;;
2019/06/29 03:15:46;;;;;;;4.8;3.5;;;;;;;17.1;67.51855;942.8254;;;;
2019/06/29 03:18:19;;;;;;;4.9;3.4;;;;;;;16.98;68.04297;942.8391;;;;
2019/06/29 03:21:04;;;;;;;6;3.4;;;;;;;16.9;68.25098;942.822;;;;
2019/06/29 03:23:27;;;;;;;7.1;3.7;;;;;;;16.93;68.99707;942.858;;;;
2019/06/29 03:25:56;;;;;;;4.6;3.6;;;;;;;16.93;68.12793;942.7847;;;;
2019/06/29 03:28:38;;;;;;;4.7;3.3;;;;;;;16.75;68.65527;942.7399;;;;
2019/06/29 03:31:19;;;;;;;8.5;3.5;;;;;;;16.65;69.05664;942.7556;;;;
2019/06/29 03:34:11;;;;;;;7.3;3.6;;;;;;;16.5;69.68262;942.7586;;;;
2019/06/29 03:36:45;;;;;;;5.6;3.5;;;;;;;16.75;68.73633;942.8131;;;;
2019/06/29 03:39:17;;;;;;;5.1;3.5;;;;;;;16.9;68.20508;942.7961;;;;
2019/06/29 03:41:56;;;;;;;5.5;3.3;;;;;;;16.68;69.02637;942.8297;;;;
2019/06/29 03:44:46;;;;;;;6;3.4;;;;;;;16.38;70.24219;942.7977;;;;
2019/06/29 03:47:14;;;;;;;5.6;3.6;;;;;;;16.68;69.39648;942.7356;;;;
2019/06/29 03:49:52;;;;;;;5.1;3.5;;;;;;;16.78;69.14648;942.7631;;;;
2019/06/29 03:52:47;;;;;;;6.5;3.4;;;;;;;16.84;69.17969;942.8723;;;;
2019/06/29 03:55:32;;;;;;;6;3.6;;;;;;;16.86;69.3457;942.9034;;;;
2019/06/29 03:58:14;;;;;;;7.1;3.7;;;;;;;16.79;69.39258;942.8514;;;;
2019/06/29 04:02:46;;;;;;;6.6;3.8;;;;;;;16.97;68.35645;942.8697;;;;
2019/06/29 04:05:23;;;;;;;6.9;3.9;;;;;;;16.92;69.00781;942.8757;;;;
2019/06/29 04:07:48;;;;;;;5.3;3.5;;;;;;;17;68.09277;942.9048;;;;
2019/06/29 04:10:21;;;;;;;7.3;3.3;;;;;;;16.9;68.4707;942.7881;;;;
2019/06/29 04:12:50;;;;;;;5.5;3.5;;;;;;;16.59;69.59277;942.8304;;;;
2019/06/29 04:15:48;;;;;;;5.8;3.7;;;;;;;16.47;70.2207;942.8144;;;;
2019/06/29 04:18:15;;;;;;;5;3.4;;;;;;;16.83;68.90039;942.7573;;;;
2019/06/29 04:20:47;;;;;;;6;3.8;;;;;;;16.52;69.95117;942.843;;;;
2019/06/29 04:23:33;;;;;;;3.9;3.5;;;;;;;16.33;70.73145;942.7433;;;;
2019/06/29 04:26:28;;;;;;;6;3.8;;;;;;;16.22;71.39453;942.7814;;;;
2019/06/29 04:29:13;;;;;;;7;4.1;;;;;;;16.51;71.08301;942.8398;;;;
2019/06/29 04:32:07;;;;;;;4.3;3.6;;;;;;;16.21;71.47559;942.709;;;;
2019/06/29 04:34:35;;;;;;;8;4;;;;;;;16.2;71.72754;942.7277;;;;
2019/06/29 04:37:04;;;;;;;9.3;3.8;;;;;;;16.39;70.99609;942.6763;;;;
2019/06/29 04:39:32;;;;;;;6.1;3.8;;;;;;;16.57;70.375;942.6866;;;;
2019/06/29 04:42:18;;;;;;;4.6;3.6;;;;;;;16.43;70.7373;942.6376;;;;
2019/06/29 04:44:48;;;;;;;5;3.2;;;;;;;16.41;70.83789;942.6697;;;;
2019/06/29 04:47:18;;;;;;;6;3.8;;;;;;;16.59;70.48438;942.7227;;;;
2019/06/29 04:49:58;;;;;;;5.7;3.7;;;;;;;16.59;70.28711;942.6849;;;;
2019/06/29 04:52:46;;;;;;;6.9;3.9;;;;;;;16.38;71.32813;942.6867;;;;
2019/06/29 04:55:10;;;;;;;4.6;3.5;;;;;;;16.52;70.98145;942.7352;;;;
2019/06/29 04:57:54;;;;;;;8.4;3.7;;;;;;;16.5;70.42285;942.7072;;;;
2019/06/29 05:00:33;;;;;;;6.3;3.8;;;;;;;16.53;70.03223;942.6531;;;;
2019/06/29 05:03:22;;;;;;;5.7;3;;;;;;;16.51;70.30859;942.6124;;;;
2019/06/29 05:06:07;;;;;;;6.5;3.2;;;;;;;17.36;68.26465;942.5602;;;;
2019/06/29 05:08:47;;;;;;;4.6;2.6;;;;;;;19.2;61.86426;942.4866;;;;
2019/06/29 05:11:21;;;;;;;4.8;2.7;;;;;;;20.46;57.39453;942.4338;;;;
2019/06/29 05:14:13;;;;;;;5.5;2.5;;;;;;;21.67;53.2168;942.4122;;;;
2019/06/29 05:16:39;;;;;;;4.5;2.4;;;;;;;22.39;51.46289;942.3808;;;;
2019/06/29 05:19:25;;;;;;;4.7;2.3;;;;;;;22.95;49.56543;942.3484;;;;
2019/06/29 05:21:52;;;;;;;3.8;2.3;;;;;;;23.63;47.8877;942.3641;;;;
2019/06/29 05:24:28;;;;;;;8.2;2.8;;;;;;;23.93;47.36719;942.3393;;;;
2019/06/29 05:27:05;;;;;;;4.4;2.6;;;;;;;24.66;45.4043;942.3095;;;;
2019/06/29 05:29:56;;;;;;;6.6;2.6;;;;;;;24.91;45.09961;942.3083;;;;
2019/06/29 05:32:27;;;;;;;5.8;2.2;;;;;;;24.98;45.47363;942.288;;;;
2019/06/29 05:34:59;;;;;;;5.9;2.5;;;;;;;24.99;44.96582;942.2921;;;;
2019/06/29 05:37:51;;;;;;;4.6;2.2;;;;;;;25.19;42.81445;942.2231;;;;
2019/06/29 05:40:30;;;;;;;4.8;1.9;;;;;;;25.26;42.31348;942.2354;;;;
2019/06/29 05:42:56;;;;;;;5.8;1.9;;;;;;;25.85;42.51172;942.1006;;;;
2019/06/29 05:45:25;;;;;;;4.8;1.9;;;;;;;26.17;40.1875;942.0876;;;;
2019/06/29 05:48:14;;;;;;;4.5;2.1;;;;;;;27.03;38.55762;942.1269;;;;
2019/06/29 05:50:53;;;;;;;4.9;2;;;;;;;27.18;37.63477;942.0641;;;;
2019/06/29 05:53:28;;;;;;;5.8;2.1;;;;;;;27.5;37.76758;942.0275;;;;
2019/06/29 05:56:08;;;;;;;3.6;2;;;;;;;27.98;37.37988;942.0228;;;;
2019/06/29 05:58:56;;;;;;;6.5;1.9;;;;;;;28.35;35.83008;941.986;;;;
2019/06/29 06:01:38;;;;;;;6.1;2;;;;;;;27.69;37.46289;942.0333;;;;
2019/06/29 06:04:56;;;;;;;7.7;2.1;;;;;;;28.55;36.11914;941.9622;;;;
2019/06/29 06:07:18;;;;;;;6.2;2;;;;;;;29.71;35.89063;941.9799;;;;
2019/06/29 06:09:46;;;;;;;5.7;1.9;;;;;;;30.52;33.8877;941.9278;;;;
2019/06/29 06:12:31;;;;;;;5;1.9;;;;;;;31.1;33.1416;941.9348;;;;
2019/06/29 06:15:16;;;;;;;7.2;2.1;;;;;;;30.16;32.64355;941.8395;;;;
2019/06/29 06:17:57;;;;;;;4.6;1.8;;;;;;;30.67;31.71387;941.8931;;;;
2019/06/29 06:20:35;;;;;;;5.2;1.8;;;;;;;31.84;31.04004;941.7944;;;;
2019/06/29 06:23:23;;;;;;;5.1;1.9;;;;;;;32.71;28.99902;941.7902;;;;
2019/06/29 06:26:08;;;;;;;7.1;1.9;;;;;;;32.87;29.30957;941.7394;;;;
2019/06/29 06:28:54;;;;;;;4.8;2;;;;;;;33.29;31.00684;941.8184;;;;
2019/06/29 06:31:31;;;;;;;7.4;2.3;;;;;;;33.95;28.01855;941.7656;;;;
2019/06/29 06:34:03;;;;;;;4.1;1.7;;;;;;;34.27;27.21973;941.8429;;;;
2019/06/29 06:36:38;;;;;;;6.7;2.3;;;;;;;34.33;27.11523;941.7997;;;;
2019/06/29 06:39:12;;;;;;;5.6;1.7;;;;;;;34.03;26.6875;941.7858;;;;
2019/06/29 06:41:46;;;;;;;5.4;1.6;;;;;;;34.64;25.72363;941.7473;;;;
2019/06/29 06:44:31;;;;;;;7.2;1.8;;;;;;;34.92;26.65527;941.7227;;;;
2019/06/29 06:46:56;;;;;;;5.7;1.4;;;;;;;35.14;26.51172;941.7339;;;;
2019/06/29 06:49:21;;;;;;;4.4;1.5;;;;;;;34.52;25.14941;941.6563;;;;
2019/06/29 06:51:50;;;;;;;3.5;1.9;;;;;;;33.17;27.27441;941.6686;;;;
2019/06/29 06:54:36;;;;;;;4.5;1.7;;;;;;;33.31;26.84961;941.6822;;;;
2019/06/29 06:57:02;;;;;;;3.8;1.9;;;;;;;34.08;27.70215;941.6306;;;;
2019/06/29 06:59:44;;;;;;;6.2;1.9;;;;;;;34.51;28.55957;941.5994;;;;
2019/06/29 07:02:17;;;;;;;5.8;1.9;;;;;;;35.14;26.81348;941.6094;;;;
2019/06/29 07:05:11;;;;;;;3.7;1.9;;;;;;;35.86;25.87598;941.6022;;;;
2019/06/29 07:07:45;;;;;;;5.7;2.1;;;;;;;36.12;23.59277;941.5522;;;;
2019/06/29 07:10:34;;;;;;;5.2;1.8;;;;;;;35.88;23.41211;941.5845;;;;
2019/06/29 07:13:05;;;;;;;4.7;1.9;;;;;;;35.43;24.27051;941.5678;;;;
2019/06/29 07:15:49;;;;;;;2.8;1.7;;;;;;;35.46;25.8291;941.5279;;;;
2019/06/29 07:18:34;;;;;;;3.5;1.5;;;;;;;35.02;23.74121;941.5223;;;;
2019/06/29 07:21:04;;;;;;;4.6;1.9;;;;;;;35.37;24.76172;941.6021;;;;
2019/06/29 07:23:41;;;;;;;4.8;1.7;;;;;;;35.26;25.91504;941.5745;;;;
2019/06/29 07:26:34;;;;;;;5.3;1.7;;;;;;;37.02;23.67578;941.6028;;;;
2019/06/29 07:29:18;;;;;;;5.8;1.8;;;;;;;37.61;22.73633;941.5876;;;;
2019/06/29 07:32:01;;;;;;;3.2;1.6;;;;;;;38.11;22.12891;941.5764;;;;
2019/06/29 07:34:54;;;;;;;3.1;1.6;;;;;;;38.05;20.29199;941.5394;;;;
2019/06/29 07:37:26;;;;;;;3.3;1.4;;;;;;;37.62;21.89941;941.5806;;;;
2019/06/29 07:40:00;;;;;;;3.7;1.6;;;;;;;37.6;23.25684;941.532;;;;
2019/06/29 07:42:44;;;;;;;3.8;1.6;;;;;;;37.21;24.77637;941.5425;;;;
2019/06/29 07:45:11;;;;;;;3.5;1.5;;;;;;;36.64;24.61328;941.5391;;;;
2019/06/29 07:47:56;;;;;;;5.6;1.7;;;;;;;37.51;22.91309;941.4933;;;;
2019/06/29 07:50:22;;;;;;;4.9;1.7;;;;;;;37.96;21.98828;941.4911;;;;
2019/06/29 07:53:05;;;;;;;6.1;1.9;;;;;;;37.65;25.37012;941.4434;;;;
2019/06/29 07:55:47;;;;;;;4.1;1.7;;;;;;;37.13;23.96094;941.478;;;;
2019/06/29 07:58:49;;;;;;;3.1;1.6;;;;;;;37.46;24.40234;941.476;;;;
2019/06/29 08:01:33;;;;;;;34.3;2.6;;;;;;;38.08;23.80371;941.4495;;;;
2019/06/29 08:04:02;;;;;;;5.3;1.7;;;;;;;38.11;25.66309;941.426;;;;
2019/06/29 08:06:37;;;;;;;4.1;1.6;;;;;;;38.67;22.61816;941.4014;;;;
2019/06/29 08:09:00;;;;;;;6.8;1.4;;;;;;;38.56;23.23242;941.4587;;;;
2019/06/29 08:11:35;;;;;;;4.4;1.5;;;;;;;38.55;22.8916;941.4204;;;;
2019/06/29 08:13:59;;;;;;;3.9;1.5;;;;;;;37.96;24.62305;941.4419;;;;
2019/06/29 08:16:28;;;;;;;3.7;1.4;;;;;;;38.12;24.38867;941.3979;;;;
2019/06/29 08:19:23;;;;;;;6.1;1.7;;;;;;;38.74;22.90137;941.3739;;;;
2019/06/29 08:21:43;;;;;;;2.6;1.4;;;;;;;38.3;23.47461;941.3517;;;;
2019/06/29 08:24:19;;;;;;;4.6;1.5;;;;;;;38.6;24.79102;941.3177;;;;
2019/06/29 08:26:50;;;;;;;3.5;1.6;;;;;;;38.66;23.62695;941.3645;;;;
2019/06/29 08:29:44;;;;;;;3.9;1.4;;;;;;;38.28;24.00879;941.4175;;;;
2019/06/29 08:31:58;;;;;;;4.6;1.6;;;;;;;38.61;24.25684;941.476;;;;
2019/06/29 08:34:31;;;;;;;3.9;1.5;;;;;;;38.27;23.7041;941.3979;;;;
2019/06/29 08:37:12;;;;;;;4.9;1.6;;;;;;;37.88;24.48535;941.3884;;;;
2019/06/29 08:39:51;;;;;;;5.9;1.7;;;;;;;37.85;25.94043;941.361;;;;
2019/06/29 08:42:28;;;;;;;5.4;1.5;;;;;;;37.55;24.61328;941.3378;;;;
2019/06/29 08:45:04;;;;;;;5.3;1.6;;;;;;;37.53;24.21191;941.3159;;;;
2019/06/29 08:47:55;;;;;;;8.6;1.7;;;;;;;36.96;24.04883;941.3304;;;;
2019/06/29 08:50:30;;;;;;;36.9;3.1;;;;;;;37.09;24.21289;941.3847;;;;
2019/06/29 08:52:58;;;;;;;5.3;1.2;;;;;;;37.21;24.60742;941.3604;;;;
2019/06/29 08:55:24;;;;;;;4.6;1.5;;;;;;;36.45;26.67188;941.3469;;;;
2019/06/29 08:58:04;;;;;;;5.2;1.6;;;;;;;36.96;26.07129;941.2961;;;;
2019/06/29 09:00:49;;;;;;;6.1;1.6;;;;;;;36.9;26.54102;941.3317;;;;
2019/06/29 09:03:44;;;;;;;3.5;1.6;;;;;;;36.64;26.87695;941.3175;;;;
2019/06/29 09:06:16;;;;;;;6;1.9;;;;;;;35.74;29.14453;941.3187;;;;
2019/06/29 09:09:01;;;;;;;8.5;1.6;;;;;;;35.64;29.66895;941.3694;;;;
2019/06/29 09:11:42;;;;;;;5.8;1.7;;;;;;;35.46;29.01758;941.3728;;;;
2019/06/29 09:14:27;;;;;;;5.2;1.8;;;;;;;35.13;29.61133;941.3301;;;;
2019/06/29 09:16:49;;;;;;;3.4;1.7;;;;;;;34.53;30.09082;941.3145;;;;
2019/06/29 09:19:39;;;;;;;9;1.9;;;;;;;34.46;30.20703;941.2996;;;;
2019/06/29 09:22:04;;;;;;;6.8;1.9;;;;;;;33.98;31.45215;941.3486;;;;
2019/06/29 09:29:53;;;;;;;4.7;1.8;;;;;;;33.46;33.33887;941.3563;;;;
2019/06/29 09:32:45;;;;;;;6.1;2;;;;;;;33.05;32.96094;941.3778;;;;
2019/06/29 09:35:19;;;;;;;7.4;1.7;;;;;;;32.8;33.03906;941.3819;;;;
2019/06/29 09:38:01;;;;;;;6.3;2.1;;;;;;;32.67;31.98438;941.3575;;;;
2019/06/29 09:40:52;;;;;;;9.9;2.1;;;;;;;32.56;33.70508;941.2762;;;;
2019/06/29 09:43:34;;;;;;;5.7;2;;;;;;;32.02;33.5332;941.2308;;;;
2019/06/29 09:46:12;;;;;;;7.6;2.2;;;;;;;31.92;34.08887;941.2708;;;;
2019/06/29 09:48:42;;;;;;;3;1.8;;;;;;;31.76;34.61523;941.2198;;;;
2019/06/29 09:51:18;;;;;;;6.4;2.1;;;;;;;31.71;37.52344;941.1656;;;;
2019/06/29 09:53:56;;;;;;;5.9;2.1;;;;;;;31.77;35.59961;941.2078;;;;
2019/06/29 09:56:42;;;;;;;5.9;2;;;;;;;31.84;35.71289;941.1656;;;;
2019/06/29 09:59:08;;;;;;;5.4;2.1;;;;;;;31.76;36.38867;941.2106;;;;
2019/06/29 10:01:50;;;;;;;6.5;2.5;;;;;;;31.63;35.02539;941.1841;;;;
2019/06/29 10:04:42;;;;;;;4;2;;;;;;;31.62;37.39648;941.1418;;;;
2019/06/29 10:07:12;;;;;;;5.2;2.2;;;;;;;31.4;36.51465;941.1199;;;;
2019/06/29 10:09:50;;;;;;;5.2;2.2;;;;;;;31.52;36.69238;941.1383;;;;
2019/06/29 10:12:22;;;;;;;5.8;2;;;;;;;31.53;35.77148;941.1277;;;;
2019/06/29 10:14:55;;;;;;;5.8;2.4;;;;;;;31.33;36.09082;941.0792;;;;
2019/06/29 10:17:25;;;;;;;5.1;2.4;;;;;;;31.36;35.56641;941.0344;;;;
2019/06/29 10:20:06;;;;;;;3.9;2.1;;;;;;;31.39;36.99414;941.033;;;;
2019/06/29 10:22:54;;;;;;;5.1;2;;;;;;;31.11;36.6123;940.9936;;;;
2019/06/29 10:25:49;;;;;;;5.9;2;;;;;;;31.23;39.54004;941.0002;;;;
2019/06/29 10:28:21;;;;;;;6.5;2.1;;;;;;;31.24;37.2207;940.9504;;;;
2019/06/29 10:31:03;;;;;;;6.3;2.1;;;;;;;31.2;39.33496;940.9344;;;;
2019/06/29 10:33:42;;;;;;;4;2.1;;;;;;;31.06;37.45703;941.0252;;;;
2019/06/29 10:36:17;;;;;;;9.2;2.3;;;;;;;31.08;37.8418;940.9989;;;;
2019/06/29 10:39:04;;;;;;;4.5;2.1;;;;;;;30.84;36.68555;940.9094;;;;
2019/06/29 10:41:34;;;;;;;7.5;2.1;;;;;;;30.93;39.22754;940.8882;;;;
2019/06/29 10:44:08;;;;;;;8;2.3;;;;;;;31.11;37.7959;940.8672;;;;
2019/06/29 10:46:39;;;;;;;9.1;2.3;;;;;;;31.12;39.86523;940.9224;;;;
2019/06/29 10:49:45;;;;;;;7.8;2.3;;;;;;;31.07;36.66797;940.9305;;;;
2019/06/29 10:52:23;;;;;;;28.3;2.8;;;;;;;31.18;38.97461;940.9239;;;;
2019/06/29 10:54:56;;;;;;;4.6;2.1;;;;;;;31.09;37.78223;940.962;;;;
2019/06/29 10:57:23;;;;;;;7.2;2.1;;;;;;;30.95;38.60742;940.8592;;;;
2019/06/29 11:00:04;;;;;;;3.5;2.2;;;;;;;30.83;37.46191;940.8261;;;;
2019/06/29 11:02:29;;;;;;;6.3;2;;;;;;;30.94;37.81738;940.8171;;;;
2019/06/29 11:05:03;;;;;;;6.7;2.1;;;;;;;31.04;38.92676;940.8436;;;;
2019/06/29 11:07:29;;;;;;;6.2;2;;;;;;;31.22;36.66895;940.8435;;;;
2019/06/29 11:10:15;;;;;;;4.4;1.9;;;;;;;31.13;37.95313;940.775;;;;
2019/06/29 11:12:46;;;;;;;6.1;2.1;;;;;;;30.86;37.94238;940.7553;;;;
2019/06/29 11:15:25;;;;;;;4.3;1.9;;;;;;;30.91;37.7666;940.7527;;;;
2019/06/29 11:18:15;;;;;;;6.4;2.1;;;;;;;30.89;36.67773;940.7251;;;;
2019/06/29 11:21:08;;;;;;;6.9;2.1;;;;;;;30.92;36.6084;940.7238;;;;
2019/06/29 11:23:49;;;;;;;4.5;2;;;;;;;31.03;36.04297;940.6656;;;;
2019/06/29 11:26:21;;;;;;;5.5;2;;;;;;;31.12;36.54004;940.6236;;;;
2019/06/29 11:29:10;;;;;;;4.8;1.8;;;;;;;31;36.08887;940.5906;;;;
2019/06/29 11:31:39;;;;;;;6.2;1.9;;;;;;;31.3;36.9502;940.6223;;;;
2019/06/29 11:34:17;;;;;;;5.7;1.9;;;;;;;31.28;36.50586;940.5869;;;;
2019/06/29 11:36:36;;;;;;;7.6;2.1;;;;;;;31.32;35.16895;940.5934;;;;
2019/06/29 11:39:09;;;;;;;4.1;1.8;;;;;;;30.97;36.01465;940.5222;;;;
2019/06/29 11:41:55;;;;;;;8.6;2.1;;;;;;;30.89;35.43457;940.5447;;;;
2019/06/29 11:44:45;;;;;;;6.6;2.3;;;;;;;31;34.66504;940.5302;;;;
2019/06/29 11:47:10;;;;;;;5.2;2.1;;;;;;;31.15;36.63965;940.5208;;;;
2019/06/29 11:49:36;;;;;;;5.3;1.8;;;;;;;30.73;35.29102;940.4973;;;;
2019/06/29 11:52:26;;;;;;;5.8;2.1;;;;;;;30.9;35.05273;940.4461;;;;
2019/06/29 13:54:26;;;;;;;4;2.2;;;;;;;30.26;35.19434;939.9417;;;;
2019/06/29 13:57:01;;;;;;;6.4;1.9;;;;;;;30.3;35.10156;940.0284;;;;
2019/06/29 13:59:34;;;;;;;5.2;1.6;;;;;;;30.43;34.59766;939.9653;;;;
2019/06/29 14:02:37;;;;;;;4.2;1.9;;;;;;;30.49;35.15234;939.9905;;;;
2019/06/29 14:05:07;;;;;;;6;2;;;;;;;30.54;35.59766;939.9734;;;;
2019/06/29 14:07:40;;;;;;;4.7;1.7;;;;;;;30.6;35.20801;939.9852;;;;
2019/06/29 14:10:24;;;;;;;5.7;1.7;;;;;;;30.79;36.03711;939.9604;;;;
2019/06/29 14:12:58;;;;;;;5.9;1.7;;;;;;;30.9;34.16797;939.9816;;;;
2019/06/29 14:15:30;;;;;;;7.5;3;;;;;;;30.81;34.39941;939.9353;;;;
2019/06/29 14:18:04;;;;;;;6.5;2.7;;;;;;;30.71;35.36035;939.9053;;;;
2019/06/29 14:20:33;;;;;;;8.3;1.9;;;;;;;30.72;33.98633;939.8422;;;;
2019/06/29 14:23:06;;;;;;;5.6;1.8;;;;;;;30.72;35.27832;939.8369;;;;
2019/06/29 14:25:54;;;;;;;6.3;1.9;;;;;;;30.8;33.98145;939.884;;;;
2019/06/29 14:28:21;;;;;;;3.7;1.8;;;;;;;30.8;35.20117;939.8446;;;;
2019/06/29 14:31:19;;;;;;;3.1;1.7;;;;;;;30.76;35.97363;939.8262;;;;
2019/06/29 14:33:46;;;;;;;5.1;1.7;;;;;;;30.75;35.06543;939.8408;;;;
2019/06/29 14:36:16;;;;;;;4.4;1.9;;;;;;;30.76;33.97852;939.8618;;;;
2019/06/29 14:39:02;;;;;;;4.3;1.8;;;;;;;30.68;34.97559;939.8303;;;;
2019/06/29 14:41:35;;;;;;;6.1;2;;;;;;;30.59;35.24316;939.8549;;;;
2019/06/29 14:44:02;;;;;;;5.4;1.8;;;;;;;30.38;35.47754;939.7378;;;;
2019/06/29 14:46:47;;;;;;;3.7;1.8;;;;;;;30.46;36.83398;939.7512;;;;
2019/06/29 14:49:31;;;;;;;5.1;1.7;;;;;;;30.29;34.62305;939.7274;;;;
2019/06/29 14:52:23;;;;;;;8.3;1.9;;;;;;;30.38;35.1084;939.676;;;;
2019/06/29 14:55:07;;;;;;;5.7;1.9;;;;;;;30.33;36.91895;939.851;;;;
2019/06/29 14:57:45;;;;;;;4.2;1.8;;;;;;;30.31;35.96191;939.8194;;;;
2019/06/29 15:00:31;;;;;;;10.4;1.8;;;;;;;30.24;34.94141;939.7839;;;;
2019/06/29 15:03:27;;;;;;;2.9;1.6;;;;;;;30.36;36.18066;939.7681;;;;
2019/06/29 15:06:04;;;;;;;4.6;1.8;;;;;;;30.33;36.22656;939.7642;;;;
2019/06/29 15:08:49;;;;;;;3.7;1.8;;;;;;;30.16;36.4873;939.7311;;;;
2019/06/29 15:11:32;;;;;;;5.4;1.9;;;;;;;30.24;34.72754;939.713;;;;
2019/06/29 15:14:19;;;;;;;6.6;2.2;;;;;;;30.29;36.00879;939.8063;;;;
2019/06/29 15:16:48;;;;;;;3.1;1.7;;;;;;;30.37;35.13086;939.7128;;;;
2019/06/29 15:19:34;;;;;;;5.4;1.8;;;;;;;30.24;34.8457;939.7668;;;;
2019/06/29 15:21:59;;;;;;;5.9;1.8;;;;;;;30.2;34.95117;939.6942;;;;
2019/06/29 15:24:35;;;;;;;5.2;2;;;;;;;30.22;35.9668;939.664;;;;
2019/06/29 15:27:04;;;;;;;5.4;1.9;;;;;;;30.02;35.80762;939.6542;;;;
2019/06/29 15:29:57;;;;;;;4.4;1.9;;;;;;;30;34.13574;939.6713;;;;
2019/06/29 15:32:27;;;;;;;5.9;1.8;;;;;;;29.89;35.22559;939.6068;;;;
2019/06/29 15:35:11;;;;;;;5.8;1.8;;;;;;;29.91;34.70215;939.5897;;;;
2019/06/29 15:37:39;;;;;;;6.3;1.9;;;;;;;29.81;33.81152;939.546;;;;
2019/06/29 15:40:34;;;;;;;5.7;1.8;;;;;;;29.93;35.14551;939.5858;;;;
2019/06/29 15:43:11;;;;;;;5.9;1.6;;;;;;;29.91;35.5957;939.5161;;;;
2019/06/29 15:45:59;;;;;;;4.5;2;;;;;;;29.93;34.37012;939.5464;;;;
2019/06/29 15:49:04;;;;;;;4;1.8;;;;;;;29.89;33.2334;939.5977;;;;
2019/06/29 15:51:39;;;;;;;4.2;1.8;;;;;;;29.85;34.51758;939.587;;;;
2019/06/29 15:54:28;;;;;;;7;2;;;;;;;29.89;35.80957;939.5622;;;;
2019/06/29 15:56:53;;;;;;;5.2;1.6;;;;;;;29.72;33.8291;939.5302;;;;
2019/06/29 15:59:45;;;;;;;6.5;1.8;;;;;;;29.77;34.81055;939.4553;;;;
2019/06/29 16:02:30;;;;;;;4.5;2;;;;;;;29.7;34.31641;939.555;;;;
2019/06/29 16:05:09;;;;;;;3.7;1.8;;;;;;;29.64;34.39453;939.5524;;;;
2019/06/29 16:07:56;;;;;;;4.2;2;;;;;;;29.56;33.76855;939.5176;;;;
2019/06/29 16:10:42;;;;;;;5.4;1.8;;;;;;;29.45;32.58008;939.55;;;;
2019/06/29 16:13:29;;;;;;;3.1;1.5;;;;;;;29.48;34.32324;939.5438;;;;
2019/06/29 16:16:14;;;;;;;5.7;1.8;;;;;;;29.44;35.01172;939.5592;;;;
2019/06/29 16:19:01;;;;;;;6.3;1.9;;;;;;;29.59;35.67773;939.5742;;;;
2019/06/29 16:21:44;;;;;;;3.5;1.7;;;;;;;29.48;33.0127;939.5792;;;;
2019/06/29 16:24:27;;;;;;;3.6;1.8;;;;;;;29.53;34.00488;939.5754;;;;
2019/06/29 16:27:07;;;;;;;4.1;1.8;;;;;;;29.47;33.7373;939.5556;;;;
2019/06/29 16:29:57;;;;;;;4.7;2;;;;;;;29.31;33.23828;939.5414;;;;
2019/06/29 16:32:43;;;;;;;3.4;1.9;;;;;;;29.27;33.19922;939.6411;;;;
2019/06/29 16:35:19;;;;;;;9.5;2;;;;;;;29.25;33.59082;939.683;;;;
2019/06/29 16:37:59;;;;;;;3.4;1.7;;;;;;;29.15;33.71484;939.6916;;;;
2019/06/29 16:40:33;;;;;;;4;1.8;;;;;;;29.12;33.22363;939.6533;;;;
2019/06/29 16:43:03;;;;;;;3.7;1.8;;;;;;;29.17;33.38184;939.6799;;;;
2019/06/29 16:45:41;;;;;;;5.6;1.6;;;;;;;29.09;33.91211;939.7058;;;;
2019/06/29 16:48:40;;;;;;;3.5;1.7;;;;;;;28.98;32.92773;939.6446;;;;
2019/06/29 16:51:23;;;;;;;2.6;1.7;;;;;;;29.05;34.38574;939.6505;;;;
2019/06/29 16:54:05;;;;;;;3;1.8;;;;;;;29.17;33.7627;939.6799;;;;
2019/06/29 16:57:02;;;;;;;4.4;1.8;;;;;;;29.01;33.41797;939.6316;;;;
2019/06/29 16:59:45;;;;;;;4.2;1.9;;;;;;;28.9;33.74316;939.6534;;;;
2019/06/29 17:02:35;;;;;;;7;1.8;;;;;;;28.75;34.24316;939.652;;;;
2019/06/29 17:05:03;;;;;;;6.5;2;;;;;;;28.58;34.04102;939.7452;;;;
2019/06/29 17:07:44;;;;;;;6;2;;;;;;;28.43;34.14844;939.7089;;;;
2019/06/29 17:10:17;;;;;;;5;1.8;;;;;;;28.38;34.56055;939.6519;;;;
2019/06/29 17:12:51;;;;;;;5.3;2.1;;;;;;;28.3;34.86328;939.7299;;;;
2019/06/29 17:15:24;;;;;;;5.6;2.1;;;;;;;28.15;34.86328;939.7072;;;;
2019/06/29 17:18:06;;;;;;;6.6;2.1;;;;;;;28.08;34.97656;939.7277;;;;
2019/06/29 17:20:50;;;;;;;6.7;2;;;;;;;28.02;35.38867;939.7885;;;;
2019/06/29 17:23:28;;;;;;;4.8;1.9;;;;;;;28.05;35.65137;939.7981;;;;
2019/06/29 17:26:19;;;;;;;5.3;1.7;;;;;;;27.91;35.2959;939.7114;;;;
2019/06/29 17:28:49;;;;;;;3.2;1.7;;;;;;;27.74;35.37793;939.7908;;;;
2019/06/29 17:31:35;;;;;;;3;1.9;;;;;;;27.64;35.53613;939.837;;;;
2019/06/29 17:34:11;;;;;;;4.7;2;;;;;;;27.76;35.66406;939.7831;;;;
2019/06/29 17:36:42;;;;;;;5.2;1.9;;;;;;;27.63;35.68945;939.8038;;;;
2019/06/29 17:39:36;;;;;;;6.4;2.1;;;;;;;27.75;35.40234;939.8538;;;;
2019/06/29 17:42:20;;;;;;;4.2;1.8;;;;;;;27.56;35.58887;939.85;;;;
2019/06/29 17:45:11;;;;;;;5.2;1.8;;;;;;;27.7;35.88477;939.8362;;;;
2019/06/29 17:47:58;;;;;;;3;1.7;;;;;;;27.42;35.6377;939.8194;;;;